Nisshoumaru — JD3093 — position and weather

sailwx.info

Track history (hours):
 
Tides and Currents Weather Stations Pressure Air Temp Water Temp Dewpoint Dewpoint Depression Visibility Wind Speed Wind Dir Waves Ship Positions

Nisshoumaru

Last reported at 2017-Sep-08 12:16 UTC. Time now 2017-Sep-23 12:44 UTC.
Position N 34°09' E 134°60'.
Warning: this ship's position is 15 days out of date.

Length 76 m; draft 4 m.

Type: Cargo ship. MMSI: 431001549.

Date/timePositionNaut miles runAvg speedWind from/ knotsBaromVisibWave heightAir tempDewpointWater temp
2017-Sep-08 12:16N 34°09' E 134°60'1810.6
2017-Sep-08 10:32N 34°26' E 135°07'113.9
2017-Sep-08 10:30N 34°26' E 135°08'713.4
2017-Sep-08 10:00N 34°30' E 135°14'612.6
2017-Sep-08 09:30N 34°33' E 135°21'3 0.1
2017-Sep-07 03:05N 34°33' E 135°25'1 7.2
2017-Sep-07 02:58N 34°34' E 135°24'1 0.4
2017-Sep-07 01:09N 34°34' E 135°23'0 0.0
2017-Sep-06 23:45N 34°34' E 135°23'0 0.0
2017-Sep-06 23:21N 34°34' E 135°23'0 0.1
2017-Sep-06 22:15N 34°34' E 135°23'0 0.1
2017-Sep-06 21:51N 34°34' E 135°23'0 0.0
2017-Sep-06 21:27N 34°34' E 135°23'0 0.1
2017-Sep-06 20:51N 34°34' E 135°23'0 0.0
2017-Sep-06 19:21N 34°34' E 135°23'0 0.0
2017-Sep-06 17:57N 34°34' E 135°23'0 0.0
2017-Sep-06 13:27N 34°34' E 135°23'0 0.1
2017-Sep-06 12:50N 34°34' E 135°23'3 8.2
2017-Sep-06 12:29N 34°34' E 135°20'612.7
2017-Sep-06 12:00N 34°34' E 135°12'612.7
2017-Sep-06 11:30N 34°35' E 135°04'4 0.1
2017-Sep-05 06:23N 34°37' E 135°01'4 9.4
2017-Sep-05 06:00N 34°36' E 135°05'611.7
2017-Sep-05 05:30N 34°37' E 135°12'611.7
2017-Sep-05 05:00N 34°40' E 135°18'1 1.8
2017-Sep-05 04:16N 34°41' E 135°17'0 0.0
2017-Sep-05 03:58N 34°41' E 135°17'0 0.0
2017-Sep-05 03:28N 34°41' E 135°17'0 0.0
2017-Sep-05 02:58N 34°41' E 135°17'2 4.0
2017-Sep-05 02:30N 34°40' E 135°19'0 0.0
2017-Sep-05 02:00N 34°40' E 135°19'0 0.0
2017-Sep-05 01:12N 34°40' E 135°19'0 0.0
2017-Sep-05 01:00N 34°40' E 135°19'0 0.0
2017-Sep-05 00:30N 34°40' E 135°19'0 0.0
2017-Sep-04 23:36N 34°40' E 135°19'0 0.0
2017-Sep-04 23:30N 34°40' E 135°19'0 0.0
2017-Sep-04 23:00N 34°40' E 135°19'0 0.0
2017-Sep-04 22:30N 34°40' E 135°19'0 0.0
2017-Sep-04 22:00N 34°40' E 135°19'0 0.0
2017-Sep-04 21:30N 34°40' E 135°19'3 6.1
2017-Sep-04 21:00N 34°37' E 135°19'612.7
2017-Sep-04 20:30N 34°35' E 135°11'713.3
2017-Sep-04 20:00N 34°35' E 135°03'7 0.2
2017-Sep-03 13:57N 34°36' E 134°55'511.9
2017-Sep-03 13:30N 34°37' E 135°02'612.9
2017-Sep-03 13:00N 34°36' E 135°09'713.5
2017-Sep-03 12:30N 34°36' E 135°18'612.4
2017-Sep-03 12:00N 34°36' E 135°25'2 0.1
2017-Sep-02 20:33N 34°35' E 135°27'0 0.9
2017-Sep-02 20:28N 34°35' E 135°27'4 8.9
2017-Sep-02 20:00N 34°36' E 135°22'612.6
2017-Sep-02 19:30N 34°32' E 135°17'612.6
2017-Sep-02 19:00N 34°27' E 135°11'1011.9
2017-Sep-02 18:08N 34°19' E 135°04'211.3
2017-Sep-02 17:58N 34°17' E 135°03'4 8.6
2017-Sep-02 17:31N 34°14' E 135°07'1 1.0
2017-Sep-02 16:59N 34°15' E 135°07'0 0.0
2017-Sep-02 16:29N 34°15' E 135°07'0 0.0
2017-Sep-02 16:00N 34°15' E 135°07'0 0.2
2017-Sep-02 15:30N 34°15' E 135°07'0 0.0
2017-Sep-02 14:57N 34°15' E 135°07'0 0.0
2017-Sep-02 14:30N 34°15' E 135°07'0 0.0
2017-Sep-02 14:00N 34°15' E 135°07'0 0.0
2017-Sep-02 13:30N 34°15' E 135°07'0 0.0
2017-Sep-02 12:58N 34°15' E 135°07'0 0.0
2017-Sep-02 12:28N 34°15' E 135°07'0 0.0
2017-Sep-02 11:55N 34°15' E 135°07'0 0.0
2017-Sep-02 11:28N 34°15' E 135°07'0 0.0
2017-Sep-02 10:58N 34°15' E 135°07'0 0.0
2017-Sep-02 10:28N 34°15' E 135°07'0 0.0
2017-Sep-02 09:58N 34°15' E 135°07'0 0.0
2017-Sep-02 09:28N 34°15' E 135°07'0 0.2
2017-Sep-02 09:00N 34°15' E 135°07'0 0.0
2017-Sep-02 08:30N 34°15' E 135°07'0 0.0
2017-Sep-02 07:57N 34°15' E 135°07'0 0.0
2017-Sep-02 07:30N 34°15' E 135°07'0 0.0
2017-Sep-02 07:00N 34°15' E 135°07'0 0.0
2017-Sep-02 06:27N 34°15' E 135°07'0 0.0
2017-Sep-02 05:54N 34°15' E 135°07'0 0.0
2017-Sep-02 05:30N 34°15' E 135°07'0 0.0
2017-Sep-02 05:00N 34°15' E 135°07'0 0.0
2017-Sep-02 04:30N 34°15' E 135°07'0 0.0
2017-Sep-02 03:57N 34°15' E 135°07'0 0.0
2017-Sep-02 03:30N 34°15' E 135°07'0 0.0
2017-Sep-02 02:54N 34°15' E 135°07'0 0.0
2017-Sep-02 02:30N 34°15' E 135°07'0 0.0
2017-Sep-02 02:00N 34°15' E 135°07'0 0.0
2017-Sep-02 01:30N 34°15' E 135°07'0 0.0
2017-Sep-02 01:00N 34°15' E 135°07'0 0.0
2017-Sep-02 00:30N 34°15' E 135°07'2 3.8
2017-Sep-02 00:01N 34°15' E 135°05'0 0.2
2017-Sep-01 23:30N 34°15' E 135°05'0 0.0
2017-Sep-01 23:00N 34°15' E 135°05'0 0.0
2017-Sep-01 22:30N 34°15' E 135°05'0 0.0
2017-Sep-01 22:00N 34°15' E 135°05'0 0.0
2017-Sep-01 21:30N 34°15' E 135°05'0 0.0
2017-Sep-01 21:00N 34°15' E 135°05'0 0.0
2017-Sep-01 20:30N 34°15' E 135°05'0 0.0
2017-Sep-01 19:57N 34°15' E 135°05'1 3.1
2017-Sep-01 19:30N 34°15' E 135°03'712.8
2017-Sep-01 18:58N 34°21' E 135°07'613.6
2017-Sep-01 18:30N 34°27' E 135°11'713.3
2017-Sep-01 18:00N 34°32' E 135°16'713.2
2017-Sep-01 17:31N 34°36' E 135°22'5 9.1
2017-Sep-01 17:01N 34°34' E 135°27'0 0.1
2017-Sep-01 12:06N 34°34' E 135°27'0 1.0
2017-Sep-01 12:00N 34°34' E 135°27'1 1.5
2017-Sep-01 11:26N 34°35' E 135°27'0 0.2
2017-Sep-01 10:57N 34°35' E 135°27'4 9.6
2017-Sep-01 10:30N 34°36' E 135°22'612.1
2017-Sep-01 10:00N 34°35' E 135°15'612.1
2017-Sep-01 09:31N 34°35' E 135°07'611.0
2017-Sep-01 09:00N 34°37' E 135°01'  
Track history (hours):
 
Tides and Currents Weather Stations Pressure Air Temp Water Temp Dewpoint Dewpoint Depression Visibility Wind Speed Wind Dir Waves Ship Positions

Nisshoumaru

Last reported at 2017-Sep-08 12:16 UTC. Time now 2017-Sep-23 12:44 UTC.
Position N 34°09' E 134°60'.
Warning: this ship's position is 15 days out of date.

Length 76 m; draft 4 m.

Type: Cargo ship. MMSI: 431001549.

Date/timePositionNaut miles runAvg speedWind from/ knotsBaromVisibWave heightAir tempDewpointWater temp
2017-Sep-08 12:16N 34°09' E 134°60'1810.6
2017-Sep-08 10:32N 34°26' E 135°07'113.9
2017-Sep-08 10:30N 34°26' E 135°08'713.4
2017-Sep-08 10:00N 34°30' E 135°14'612.6
2017-Sep-08 09:30N 34°33' E 135°21'3 0.1
2017-Sep-07 03:05N 34°33' E 135°25'1 7.2
2017-Sep-07 02:58N 34°34' E 135°24'1 0.4
2017-Sep-07 01:09N 34°34' E 135°23'0 0.0
2017-Sep-06 23:45N 34°34' E 135°23'0 0.0
2017-Sep-06 23:21N 34°34' E 135°23'0 0.1
2017-Sep-06 22:15N 34°34' E 135°23'0 0.1
2017-Sep-06 21:51N 34°34' E 135°23'0 0.0
2017-Sep-06 21:27N 34°34' E 135°23'0 0.1
2017-Sep-06 20:51N 34°34' E 135°23'0 0.0
2017-Sep-06 19:21N 34°34' E 135°23'0 0.0
2017-Sep-06 17:57N 34°34' E 135°23'0 0.0
2017-Sep-06 13:27N 34°34' E 135°23'0 0.1
2017-Sep-06 12:50N 34°34' E 135°23'3 8.2
2017-Sep-06 12:29N 34°34' E 135°20'612.7
2017-Sep-06 12:00N 34°34' E 135°12'612.7
2017-Sep-06 11:30N 34°35' E 135°04'4 0.1
2017-Sep-05 06:23N 34°37' E 135°01'4 9.4
2017-Sep-05 06:00N 34°36' E 135°05'611.7
2017-Sep-05 05:30N 34°37' E 135°12'611.7
2017-Sep-05 05:00N 34°40' E 135°18'1 1.8
2017-Sep-05 04:16N 34°41' E 135°17'0 0.0
2017-Sep-05 03:58N 34°41' E 135°17'0 0.0
2017-Sep-05 03:28N 34°41' E 135°17'0 0.0
2017-Sep-05 02:58N 34°41' E 135°17'2 4.0
2017-Sep-05 02:30N 34°40' E 135°19'0 0.0
2017-Sep-05 02:00N 34°40' E 135°19'0 0.0
2017-Sep-05 01:12N 34°40' E 135°19'0 0.0
2017-Sep-05 01:00N 34°40' E 135°19'0 0.0
2017-Sep-05 00:30N 34°40' E 135°19'0 0.0
2017-Sep-04 23:36N 34°40' E 135°19'0 0.0
2017-Sep-04 23:30N 34°40' E 135°19'0 0.0
2017-Sep-04 23:00N 34°40' E 135°19'0 0.0
2017-Sep-04 22:30N 34°40' E 135°19'0 0.0
2017-Sep-04 22:00N 34°40' E 135°19'0 0.0
2017-Sep-04 21:30N 34°40' E 135°19'3 6.1
2017-Sep-04 21:00N 34°37' E 135°19'612.7
2017-Sep-04 20:30N 34°35' E 135°11'713.3
2017-Sep-04 20:00N 34°35' E 135°03'7 0.2
2017-Sep-03 13:57N 34°36' E 134°55'511.9
2017-Sep-03 13:30N 34°37' E 135°02'612.9
2017-Sep-03 13:00N 34°36' E 135°09'713.5
2017-Sep-03 12:30N 34°36' E 135°18'612.4
2017-Sep-03 12:00N 34°36' E 135°25'2 0.1
2017-Sep-02 20:33N 34°35' E 135°27'0 0.9
2017-Sep-02 20:28N 34°35' E 135°27'4 8.9
2017-Sep-02 20:00N 34°36' E 135°22'612.6
2017-Sep-02 19:30N 34°32' E 135°17'612.6
2017-Sep-02 19:00N 34°27' E 135°11'1011.9
2017-Sep-02 18:08N 34°19' E 135°04'211.3
2017-Sep-02 17:58N 34°17' E 135°03'4 8.6
2017-Sep-02 17:31N 34°14' E 135°07'1 1.0
2017-Sep-02 16:59N 34°15' E 135°07'0 0.0
2017-Sep-02 16:29N 34°15' E 135°07'0 0.0
2017-Sep-02 16:00N 34°15' E 135°07'0 0.2
2017-Sep-02 15:30N 34°15' E 135°07'0 0.0
2017-Sep-02 14:57N 34°15' E 135°07'0 0.0
2017-Sep-02 14:30N 34°15' E 135°07'0 0.0
2017-Sep-02 14:00N 34°15' E 135°07'0 0.0
2017-Sep-02 13:30N 34°15' E 135°07'0 0.0
2017-Sep-02 12:58N 34°15' E 135°07'0 0.0
2017-Sep-02 12:28N 34°15' E 135°07'0 0.0
2017-Sep-02 11:55N 34°15' E 135°07'0 0.0
2017-Sep-02 11:28N 34°15' E 135°07'0 0.0
2017-Sep-02 10:58N 34°15' E 135°07'0 0.0
2017-Sep-02 10:28N 34°15' E 135°07'0 0.0
2017-Sep-02 09:58N 34°15' E 135°07'0 0.0
2017-Sep-02 09:28N 34°15' E 135°07'0 0.2
2017-Sep-02 09:00N 34°15' E 135°07'0 0.0
2017-Sep-02 08:30N 34°15' E 135°07'0 0.0
2017-Sep-02 07:57N 34°15' E 135°07'0 0.0
2017-Sep-02 07:30N 34°15' E 135°07'0 0.0
2017-Sep-02 07:00N 34°15' E 135°07'0 0.0
2017-Sep-02 06:27N 34°15' E 135°07'0 0.0
2017-Sep-02 05:54N 34°15' E 135°07'0 0.0
2017-Sep-02 05:30N 34°15' E 135°07'0 0.0
2017-Sep-02 05:00N 34°15' E 135°07'0 0.0
2017-Sep-02 04:30N 34°15' E 135°07'0 0.0
2017-Sep-02 03:57N 34°15' E 135°07'0 0.0
2017-Sep-02 03:30N 34°15' E 135°07'0 0.0
2017-Sep-02 02:54N 34°15' E 135°07'0 0.0
2017-Sep-02 02:30N 34°15' E 135°07'0 0.0
2017-Sep-02 02:00N 34°15' E 135°07'0 0.0
2017-Sep-02 01:30N 34°15' E 135°07'0 0.0
2017-Sep-02 01:00N 34°15' E 135°07'0 0.0
2017-Sep-02 00:30N 34°15' E 135°07'2 3.8
2017-Sep-02 00:01N 34°15' E 135°05'0 0.2
2017-Sep-01 23:30N 34°15' E 135°05'0 0.0
2017-Sep-01 23:00N 34°15' E 135°05'0 0.0
2017-Sep-01 22:30N 34°15' E 135°05'0 0.0
2017-Sep-01 22:00N 34°15' E 135°05'0 0.0
2017-Sep-01 21:30N 34°15' E 135°05'0 0.0
2017-Sep-01 21:00N 34°15' E 135°05'0 0.0
2017-Sep-01 20:30N 34°15' E 135°05'0 0.0
2017-Sep-01 19:57N 34°15' E 135°05'1 3.1
2017-Sep-01 19:30N 34°15' E 135°03'712.8
2017-Sep-01 18:58N 34°21' E 135°07'613.6
2017-Sep-01 18:30N 34°27' E 135°11'713.3
2017-Sep-01 18:00N 34°32' E 135°16'713.2
2017-Sep-01 17:31N 34°36' E 135°22'5 9.1
2017-Sep-01 17:01N 34°34' E 135°27'0 0.1
2017-Sep-01 12:06N 34°34' E 135°27'0 1.0
2017-Sep-01 12:00N 34°34' E 135°27'1 1.5
2017-Sep-01 11:26N 34°35' E 135°27'0 0.2
2017-Sep-01 10:57N 34°35' E 135°27'4 9.6
2017-Sep-01 10:30N 34°36' E 135°22'612.1
2017-Sep-01 10:00N 34°35' E 135°15'612.1
2017-Sep-01 09:31N 34°35' E 135°07'611.0
2017-Sep-01 09:00N 34°37' E 135°01'  

Dump ship's entire track history